createdAt,value
2018-06-22T00:02:10.312Z,12.00
2018-06-22T00:07:13.366Z,12.00
2018-06-22T00:12:16.444Z,11.90
2018-06-22T00:17:19.528Z,11.90
2018-06-22T00:22:22.822Z,11.90
2018-06-22T00:27:25.989Z,11.80
2018-06-22T00:32:29.074Z,11.70
2018-06-22T00:37:32.166Z,11.70
2018-06-22T00:42:35.244Z,11.60
2018-06-22T00:47:38.283Z,11.70
2018-06-22T00:52:41.351Z,11.80
2018-06-22T00:57:44.476Z,11.80
2018-06-22T01:02:47.669Z,11.80
2018-06-22T01:07:50.826Z,11.70
2018-06-22T01:12:53.944Z,11.50
2018-06-22T01:17:56.971Z,11.40
2018-06-22T01:23:00.035Z,11.20
2018-06-22T01:28:03.148Z,11.10
2018-06-22T01:33:06.265Z,11.10
2018-06-22T01:38:09.524Z,11.00
2018-06-22T01:53:18.485Z,10.80
2018-06-22T01:58:21.602Z,10.80
2018-06-22T02:03:24.885Z,10.70
2018-06-22T02:08:28.043Z,10.60
2018-06-22T02:13:31.140Z,10.60
2018-06-22T02:18:34.486Z,10.60
2018-06-22T02:23:37.595Z,10.60
2018-06-22T02:28:40.699Z,10.60
2018-06-22T02:33:43.842Z,10.70
2018-06-22T02:38:46.960Z,10.80
2018-06-22T02:43:50.104Z,10.70
2018-06-22T02:48:53.192Z,10.80
2018-06-22T02:53:56.317Z,10.90
2018-06-22T02:58:59.474Z,11.00
2018-06-22T03:04:02.581Z,11.00
2018-06-22T03:09:06.915Z,11.10
2018-06-22T03:14:09.970Z,11.10
2018-06-22T03:19:13.084Z,11.20
2018-06-22T03:24:16.154Z,11.10
2018-06-22T03:29:19.318Z,11.10
2018-06-22T03:34:22.400Z,11.30
2018-06-22T03:39:25.481Z,11.30
2018-06-22T03:44:28.555Z,11.40
2018-06-22T03:49:31.680Z,11.40
2018-06-22T03:54:34.749Z,11.50
2018-06-22T03:59:37.821Z,11.50
2018-06-22T04:04:40.942Z,11.60
2018-06-22T04:09:44.323Z,11.50
2018-06-22T04:14:47.374Z,11.60
2018-06-22T04:19:50.590Z,11.60
2018-06-22T04:24:53.746Z,11.70
2018-06-22T04:29:56.862Z,11.80
2018-06-22T04:35:00.200Z,11.80
2018-06-22T04:40:03.473Z,11.90
2018-06-22T04:45:06.568Z,12.00
2018-06-22T04:50:09.772Z,11.90
2018-06-22T04:55:13.429Z,11.80
2018-06-22T05:00:17.469Z,11.90
2018-06-22T05:05:20.609Z,12.00
2018-06-22T05:10:23.784Z,12.10
2018-06-22T05:15:26.904Z,12.10
2018-06-22T05:20:30.368Z,12.20
2018-06-22T05:25:34.849Z,12.20
2018-06-22T05:30:37.942Z,12.20
2018-06-22T05:35:41.172Z,12.20
2018-06-22T05:40:44.463Z,12.20
2018-06-22T05:45:47.665Z,12.10
2018-06-22T05:50:51.032Z,12.00
2018-06-22T05:55:54.103Z,12.10
2018-06-22T06:00:57.342Z,12.20
2018-06-22T06:06:00.469Z,12.50
2018-06-22T06:11:03.572Z,12.80
2018-06-22T06:16:07.213Z,13.00
2018-06-22T06:21:10.394Z,13.10
2018-06-22T06:26:13.473Z,13.00
2018-06-22T06:31:16.529Z,12.80
2018-06-22T06:36:19.551Z,12.70
2018-06-22T06:41:22.602Z,12.70
2018-06-22T06:46:25.666Z,12.90
2018-06-22T06:51:28.723Z,13.10
2018-06-22T06:56:31.790Z,12.90
2018-06-22T07:01:34.903Z,13.10
2018-06-22T07:06:38.015Z,13.40
2018-06-22T07:11:41.177Z,13.40
2018-06-22T07:16:44.286Z,13.40
2018-06-22T07:21:47.359Z,13.40
2018-06-22T07:26:50.394Z,13.60
2018-06-22T07:31:53.525Z,13.80
2018-06-22T07:36:56.559Z,14.20
2018-06-22T07:41:59.612Z,14.10
2018-06-22T07:47:02.762Z,13.70
2018-06-22T07:52:05.828Z,13.30
2018-06-22T07:57:08.920Z,13.30
2018-06-22T08:02:13.064Z,14.20
2018-06-22T08:07:16.153Z,16.00
2018-06-22T08:12:19.248Z,16.40
2018-06-22T08:17:22.296Z,15.80
2018-06-22T08:22:25.353Z,14.70
2018-06-22T08:27:28.448Z,14.50
2018-06-22T08:32:31.494Z,14.40
2018-06-22T08:37:34.568Z,14.30
2018-06-22T08:42:37.776Z,14.20
2018-06-22T08:47:40.849Z,14.30
2018-06-22T08:52:44.012Z,14.40
2018-06-22T08:57:47.077Z,14.90
2018-06-22T09:02:50.115Z,15.40
2018-06-22T09:07:53.188Z,15.50
2018-06-22T09:12:56.278Z,15.50
2018-06-22T09:17:59.296Z,15.70
2018-06-22T09:23:02.358Z,16.20
2018-06-22T09:28:05.446Z,16.80
2018-06-22T09:33:08.503Z,16.90
2018-06-22T09:38:11.628Z,16.40
2018-06-22T09:43:14.731Z,16.00
2018-06-22T09:48:17.892Z,16.00
2018-06-22T09:53:20.936Z,16.70
2018-06-22T09:58:24.352Z,16.20
2018-06-22T10:03:28.558Z,14.70
2018-06-22T10:08:31.616Z,14.10
2018-06-22T10:13:34.771Z,14.00
2018-06-22T10:18:37.823Z,14.40
2018-06-22T10:23:40.892Z,15.10
2018-06-22T10:28:44.017Z,15.20
2018-06-22T10:38:49.948Z,15.20
2018-06-22T10:43:53.015Z,15.70
2018-06-22T10:48:56.346Z,16.50
2018-06-22T10:53:59.529Z,17.00
2018-06-22T10:59:02.682Z,17.30
2018-06-22T11:04:06.232Z,17.20
2018-06-22T11:09:11.029Z,17.40
2018-06-22T11:14:14.108Z,17.40
2018-06-22T11:19:17.215Z,17.40
2018-06-22T11:24:20.274Z,17.40
2018-06-22T11:29:23.325Z,17.20
2018-06-22T11:34:26.443Z,17.40
2018-06-22T11:39:29.594Z,17.30
2018-06-22T11:44:32.659Z,17.30
2018-06-22T11:49:35.729Z,16.80
2018-06-22T11:54:38.816Z,16.10
2018-06-22T11:59:42.136Z,15.70
2018-06-22T12:04:45.349Z,15.60
2018-06-22T12:09:48.373Z,15.50
2018-06-22T12:14:51.505Z,15.50
2018-06-22T12:19:54.572Z,15.20
2018-06-22T12:24:57.819Z,15.30
2018-06-22T12:30:00.903Z,15.70
2018-06-22T12:35:03.961Z,15.80
2018-06-22T12:40:07.013Z,15.90
2018-06-22T12:45:10.086Z,16.20
2018-06-22T12:50:13.120Z,16.80
2018-06-22T12:55:16.254Z,17.30
2018-06-22T13:00:19.319Z,17.30
2018-06-22T13:05:22.463Z,17.10
2018-06-22T13:10:25.555Z,17.30
2018-06-22T13:15:28.621Z,17.50
2018-06-22T13:20:31.716Z,18.10
2018-06-22T13:25:34.828Z,18.40
2018-06-22T13:30:39.159Z,18.50
2018-06-22T13:35:42.274Z,18.50
2018-06-22T13:40:45.377Z,19.00
2018-06-22T13:45:48.449Z,19.30
2018-06-22T13:55:54.664Z,19.10
2018-06-22T14:00:57.719Z,18.70
2018-06-22T14:06:06.231Z,18.40
2018-06-22T14:11:09.306Z,18.00
2018-06-22T14:16:12.409Z,17.80
2018-06-22T14:21:15.491Z,17.70
2018-06-22T14:26:18.531Z,17.70
2018-06-22T14:31:21.576Z,17.90
2018-06-22T14:36:24.791Z,18.40
2018-06-22T14:46:30.761Z,18.30
2018-06-22T14:51:33.839Z,18.30
2018-06-22T14:56:42.494Z,18.30
2018-06-22T15:01:51.019Z,18.50
2018-06-22T15:06:59.702Z,18.70
2018-06-22T15:12:02.796Z,18.80
2018-06-22T15:17:10.262Z,18.60
2018-06-22T15:22:14.079Z,18.50
2018-06-22T15:27:17.194Z,18.30
2018-06-22T15:32:20.217Z,18.40
2018-06-22T15:37:28.796Z,18.40
2018-06-22T15:42:37.272Z,18.50
2018-06-22T15:47:45.875Z,18.50
2018-06-22T15:52:54.512Z,18.40
2018-06-22T15:57:57.625Z,18.40
2018-06-22T16:03:06.246Z,18.30
2018-06-22T16:08:09.503Z,18.30
2018-06-22T16:13:18.139Z,18.40
2018-06-22T16:18:26.585Z,18.50
2018-06-22T16:23:35.169Z,18.60
2018-06-22T16:28:38.222Z,18.70
2018-06-22T16:33:47.759Z,18.80
2018-06-22T16:38:50.924Z,19.10
2018-06-22T16:43:54.191Z,19.20
2018-06-22T16:48:57.236Z,19.10
2018-06-22T16:54:00.293Z,19.00
2018-06-22T16:59:04.602Z,18.90
2018-06-22T17:04:07.773Z,18.80
2018-06-22T17:09:16.517Z,18.80
2018-06-22T17:14:25.046Z,19.00
2018-06-22T17:19:28.111Z,18.80
2018-06-22T17:24:31.176Z,18.80
2018-06-22T17:29:34.230Z,18.80
2018-06-22T17:34:37.294Z,18.80
2018-06-22T17:39:40.313Z,18.60
2018-06-22T17:44:43.377Z,18.50
2018-06-22T17:54:50.384Z,18.20
2018-06-22T17:59:59.117Z,18.10
2018-06-22T18:06:08.568Z,18.00
2018-06-22T18:11:17.083Z,17.90
2018-06-22T18:16:20.123Z,17.80
2018-06-22T18:21:23.304Z,17.70
2018-06-22T18:26:26.377Z,17.70
2018-06-22T18:31:29.513Z,17.60
2018-06-22T18:36:32.647Z,17.50
2018-06-22T18:41:35.717Z,17.30
2018-06-22T18:46:38.780Z,16.80
2018-06-22T18:51:42.145Z,16.30
2018-06-22T18:56:50.946Z,16.00
2018-06-22T19:01:59.297Z,15.90
2018-06-22T19:12:05.849Z,16.00
2018-06-22T19:17:09.747Z,16.10
2018-06-22T19:22:12.793Z,16.20
2018-06-22T19:27:15.857Z,16.20
2018-06-22T19:32:19.048Z,16.10
2018-06-22T19:37:22.213Z,16.10
2018-06-22T19:42:25.301Z,16.00
2018-06-22T19:47:33.960Z,15.90
2018-06-22T19:52:42.610Z,15.70
2018-06-22T19:57:45.631Z,15.70
2018-06-22T20:02:48.679Z,15.70
2018-06-22T20:07:51.764Z,15.60
2018-06-22T20:12:54.865Z,15.50
2018-06-22T20:17:57.949Z,15.40
2018-06-22T20:23:01.091Z,15.40
2018-06-22T20:28:04.466Z,15.30
2018-06-22T20:33:07.520Z,15.30
2018-06-22T20:38:16.173Z,15.20
2018-06-22T20:43:24.802Z,15.20
2018-06-22T20:48:33.273Z,15.10
2018-06-22T20:53:36.305Z,15.10
2018-06-22T20:58:39.374Z,15.00
2018-06-22T21:03:42.437Z,15.00
2018-06-22T21:08:45.513Z,15.00
2018-06-22T21:13:48.552Z,14.90
2018-06-22T21:18:51.566Z,14.90
2018-06-22T21:23:54.745Z,14.90
2018-06-22T21:29:03.456Z,14.90
2018-06-22T21:34:11.905Z,14.90
2018-06-22T21:39:14.981Z,14.80
2018-06-22T21:44:18.018Z,14.80
2018-06-22T21:49:21.062Z,14.80
2018-06-22T21:54:24.156Z,14.80
2018-06-22T21:59:27.231Z,14.70
2018-06-22T22:04:30.500Z,14.70
2018-06-22T22:09:39.042Z,14.70
2018-06-22T22:14:42.503Z,14.70
2018-06-22T22:19:45.630Z,14.70
2018-06-22T22:24:48.691Z,14.60
2018-06-22T22:29:51.775Z,14.60
2018-06-22T22:34:54.882Z,14.60
2018-06-22T22:39:58.919Z,14.70
2018-06-22T22:45:01.987Z,14.60
2018-06-22T22:50:05.258Z,14.60
2018-06-22T22:55:08.323Z,14.50
2018-06-22T23:00:11.367Z,14.40
2018-06-22T23:05:14.400Z,14.40
2018-06-22T23:10:17.514Z,14.40
2018-06-22T23:15:20.596Z,14.20
2018-06-22T23:20:24.606Z,14.20
2018-06-22T23:25:27.663Z,14.20
2018-06-22T23:30:30.705Z,14.20
2018-06-22T23:35:34.060Z,14.10
2018-06-22T23:40:37.357Z,13.90
2018-06-22T23:50:43.386Z,13.80
2018-06-22T23:55:46.449Z,13.80
